createdAt,value
2022-08-01T00:04:42.277Z,95602.25
2022-08-01T00:09:45.673Z,95605.91
2022-08-01T00:14:49.427Z,95606.03
2022-08-01T00:19:52.689Z,95605.25
2022-08-01T00:24:55.948Z,95612.25
2022-08-01T00:30:11.448Z,95615.69
2022-08-01T00:35:18.410Z,95615.13
2022-08-01T00:40:21.981Z,95620.69
2022-08-01T00:45:26.530Z,95613.53
2022-08-01T00:50:31.654Z,95609.88
2022-08-01T00:55:35.304Z,95605.66
2022-08-01T01:00:52.031Z,95614.97
2022-08-01T01:05:57.806Z,95613.84
2022-08-01T01:11:02.085Z,95612.56
2022-08-01T01:16:05.796Z,95611.91
2022-08-01T01:21:10.157Z,95616.31
2022-08-01T01:26:22.615Z,95621.09
2022-08-01T01:31:35.391Z,95624.81
2022-08-01T01:36:59.278Z,95621.50
2022-08-01T01:42:05.377Z,95623.56
2022-08-01T01:47:09.568Z,95621.94
2022-08-01T01:52:14.063Z,95622.13
2022-08-01T01:57:18.162Z,95628.00
2022-08-01T02:02:22.245Z,95626.88
2022-08-01T02:07:25.841Z,95636.09
2022-08-01T02:12:29.882Z,95632.16
2022-08-01T02:17:34.011Z,95634.31
2022-08-01T02:22:38.879Z,95636.34
2022-08-01T02:27:43.437Z,95636.22
2022-08-01T02:32:47.149Z,95641.69
2022-08-01T02:37:51.159Z,95630.50
2022-08-01T02:42:54.418Z,95647.09
2022-08-01T02:47:58.075Z,95644.69
2022-08-01T02:53:01.279Z,95638.91
2022-08-01T02:58:05.766Z,95641.75
2022-08-01T03:03:09.783Z,95651.75
2022-08-01T03:08:14.886Z,95656.63
2022-08-01T03:13:18.337Z,95655.59
2022-08-01T03:18:21.645Z,95657.53
2022-08-01T03:23:37.622Z,95659.13
2022-08-01T03:28:42.118Z,95658.06
2022-08-01T03:33:45.552Z,95651.34
2022-08-01T03:38:49.952Z,95660.38
2022-08-01T03:43:53.247Z,95668.44
2022-08-01T03:48:56.882Z,95673.31
2022-08-01T03:54:00.615Z,95675.84
2022-08-01T03:59:04.255Z,95684.09
2022-08-01T04:04:07.924Z,95682.22
2022-08-01T04:09:13.579Z,95695.00
2022-08-01T04:14:17.285Z,95694.19
2022-08-01T04:19:21.500Z,95695.13
2022-08-01T04:24:24.850Z,95703.38
2022-08-01T04:29:28.173Z,95716.81
2022-08-01T04:34:31.873Z,95711.09
2022-08-01T04:39:35.794Z,95706.75
2022-08-01T04:44:55.294Z,95714.50
2022-08-01T04:49:59.321Z,95723.94
2022-08-01T04:55:03.414Z,95720.06
2022-08-01T05:00:08.007Z,95718.31
2022-08-01T05:05:13.511Z,95726.72
2022-08-01T05:10:17.422Z,95726.75
2022-08-01T05:15:20.714Z,95735.88
2022-08-01T05:20:24.836Z,95735.41
2022-08-01T05:25:57.389Z,95740.56
2022-08-01T05:30:55.704Z,95737.22
2022-08-01T05:35:59.036Z,95745.31
2022-08-01T05:41:03.087Z,95742.09
2022-08-01T05:46:07.600Z,95756.06
2022-08-01T05:51:11.562Z,95744.38
2022-08-01T05:56:14.885Z,95755.25
2022-08-01T06:01:18.897Z,95763.56
2022-08-01T06:06:25.486Z,95756.50
2022-08-01T06:11:29.718Z,95764.38
2022-08-01T06:16:33.306Z,95769.19
2022-08-01T06:21:37.409Z,95767.91
2022-08-01T06:26:41.505Z,95774.06
2022-08-01T06:31:45.612Z,95770.97
2022-08-01T06:36:49.690Z,95774.00
2022-08-01T06:41:56.515Z,95774.16
2022-08-01T06:47:00.571Z,95773.25
2022-08-01T06:52:05.115Z,95773.13
2022-08-01T06:57:08.727Z,95764.81
2022-08-01T07:02:12.573Z,95776.66
2022-08-01T07:07:16.620Z,95773.13
2022-08-01T07:12:21.229Z,95767.06
2022-08-01T07:17:24.814Z,95772.53
2022-08-01T07:22:28.694Z,95761.00
2022-08-01T07:27:33.054Z,95765.63
2022-08-01T07:32:37.176Z,95763.72
2022-08-01T07:37:48.419Z,95757.94
2022-08-01T07:42:53.163Z,95762.63
2022-08-01T07:47:57.017Z,95768.53
2022-08-01T07:53:01.261Z,95766.13
2022-08-01T07:58:05.042Z,95773.00
2022-08-01T08:03:08.519Z,95764.53
2022-08-01T08:08:12.523Z,95770.31
2022-08-01T08:13:16.157Z,95764.44
2022-08-01T08:18:22.255Z,95755.09
2022-08-01T08:23:44.157Z,95752.19
2022-08-01T08:28:47.802Z,95758.59
2022-08-01T08:33:51.358Z,95751.97
2022-08-01T08:38:54.977Z,95757.28
2022-08-01T08:44:00.375Z,95739.88
2022-08-01T08:49:04.540Z,95745.53
2022-08-01T08:54:09.942Z,95750.06
2022-08-01T08:59:14.163Z,95752.47
2022-08-01T09:04:17.820Z,95744.41
2022-08-01T09:09:21.997Z,95735.53
2022-08-01T09:14:28.077Z,95753.84
2022-08-01T09:19:40.686Z,95754.91
2022-08-01T09:24:45.230Z,95758.13
2022-08-01T09:29:49.880Z,95748.66
2022-08-01T09:35:04.206Z,95743.41
2022-08-01T09:40:08.873Z,95758.69
2022-08-01T09:45:23.241Z,95736.59
2022-08-01T09:50:27.282Z,95741.25
2022-08-01T09:55:30.571Z,95740.84
2022-08-01T10:00:45.314Z,95728.09
2022-08-01T10:05:50.032Z,95730.53
2022-08-01T10:10:56.535Z,95722.88
2022-08-01T10:16:03.251Z,95727.50
2022-08-01T10:21:08.817Z,95715.13
2022-08-01T10:26:14.540Z,95718.88
2022-08-01T10:31:18.083Z,95713.75
2022-08-01T10:36:27.877Z,95714.13
2022-08-01T10:41:33.197Z,95706.31
2022-08-01T10:46:37.500Z,95717.50
2022-08-01T10:51:51.613Z,95710.94
2022-08-01T10:56:57.497Z,95700.47
2022-08-01T11:02:01.835Z,95698.16
2022-08-01T11:07:06.330Z,95699.41
2022-08-01T11:12:21.253Z,95689.88
2022-08-01T11:17:28.151Z,95682.00
2022-08-01T11:22:35.127Z,95676.16
2022-08-01T11:27:38.714Z,95676.13
2022-08-01T11:33:06.599Z,95678.53
2022-08-01T11:38:08.206Z,95668.75
2022-08-01T11:43:11.497Z,95666.13
2022-08-01T11:48:17.199Z,95673.66
2022-08-01T11:53:22.592Z,95657.84
2022-08-01T11:58:29.546Z,95664.53
2022-08-01T12:03:36.861Z,95658.22
2022-08-01T12:08:40.882Z,95644.41
2022-08-01T12:13:44.692Z,95663.03
2022-08-01T12:18:48.633Z,95647.41
2022-08-01T12:23:53.101Z,95650.69
2022-08-01T12:28:56.582Z,95644.44
2022-08-01T12:34:00.517Z,95632.94
2022-08-01T12:39:05.227Z,95627.78
2022-08-01T12:44:09.647Z,95624.03
2022-08-01T12:49:13.272Z,95623.22
2022-08-01T12:54:19.096Z,95615.69
2022-08-01T12:59:23.269Z,95616.84
2022-08-01T13:04:27.031Z,95618.34
2022-08-01T13:09:30.649Z,95614.34
2022-08-01T13:14:34.199Z,95621.78
2022-08-01T13:19:37.473Z,95624.59
2022-08-01T13:24:40.735Z,95641.13
2022-08-01T13:29:45.336Z,95639.78
2022-08-01T13:34:48.846Z,95635.63
2022-08-01T13:39:52.708Z,95632.75
2022-08-01T13:44:56.717Z,95618.78
2022-08-01T13:50:05.627Z,95625.56
2022-08-01T13:55:11.049Z,95618.84
2022-08-01T14:00:14.907Z,95635.72
2022-08-01T14:05:19.342Z,95624.75
2022-08-01T14:10:23.477Z,95635.19
2022-08-01T14:15:38.010Z,95637.88
2022-08-01T14:20:42.993Z,95652.38
2022-08-01T14:26:03.286Z,95647.19
2022-08-01T14:31:09.727Z,95651.81
2022-08-01T14:36:29.324Z,95648.16
2022-08-01T14:41:37.820Z,95643.94
2022-08-01T14:46:57.106Z,95644.28
2022-08-01T14:52:02.137Z,95645.41
2022-08-01T14:57:06.090Z,95642.50
2022-08-01T15:02:11.697Z,95648.75
2022-08-01T15:07:15.559Z,95659.63
2022-08-01T15:12:19.219Z,95665.19
2022-08-01T15:17:22.825Z,95667.63
2022-08-01T15:22:27.167Z,95675.16
2022-08-01T15:27:30.990Z,95681.13
2022-08-01T15:37:42.592Z,95675.44
2022-08-01T15:42:46.794Z,95678.75
2022-08-01T15:47:50.063Z,95686.00
2022-08-01T15:52:53.413Z,95688.88
2022-08-01T15:57:57.746Z,95688.75
2022-08-01T16:03:00.974Z,95688.09
2022-08-01T16:08:05.010Z,95696.03
2022-08-01T16:13:08.589Z,95693.66
2022-08-01T16:18:13.495Z,95708.13
2022-08-01T16:23:17.138Z,95691.63
2022-08-01T16:28:21.001Z,95698.13
2022-08-01T16:33:53.423Z,95685.03
2022-08-01T16:38:51.225Z,95675.50
2022-08-01T16:43:55.237Z,95664.16
2022-08-01T16:48:59.158Z,95662.19
2022-08-01T16:54:02.954Z,95654.81
2022-08-01T16:59:07.144Z,95637.28
2022-08-01T17:04:12.121Z,95631.38
2022-08-01T17:09:15.418Z,95629.03
2022-08-01T17:14:19.068Z,95625.31
2022-08-01T17:19:32.612Z,95624.84
2022-08-01T17:24:37.142Z,95630.03
2022-08-01T17:29:43.986Z,95638.47
2022-08-01T17:34:48.213Z,95634.81
2022-08-01T17:39:51.896Z,95633.63
2022-08-01T17:44:55.225Z,95650.09
2022-08-01T17:50:02.703Z,95653.81
2022-08-01T17:55:06.122Z,95661.13
2022-08-01T18:00:29.836Z,95665.47
2022-08-01T18:05:36.114Z,95679.09
2022-08-01T18:10:42.932Z,95691.97
2022-08-01T18:15:48.660Z,95686.88
2022-08-01T18:20:54.199Z,95671.44
2022-08-01T18:26:02.475Z,95677.84
2022-08-01T18:31:07.128Z,95684.00
2022-08-01T18:36:31.459Z,95691.31
2022-08-01T18:41:34.184Z,95678.69
2022-08-01T18:46:38.343Z,95669.19
2022-08-01T18:51:45.087Z,95685.31
2022-08-01T18:56:48.555Z,95704.38
2022-08-01T19:01:51.921Z,95725.09
2022-08-01T19:06:55.770Z,95732.84
2022-08-01T19:11:59.133Z,95737.88
2022-08-01T19:17:02.487Z,95748.00
2022-08-01T19:22:05.905Z,95745.19
2022-08-01T19:27:10.389Z,95743.44
2022-08-01T19:32:13.937Z,95754.69
2022-08-01T19:37:17.254Z,95755.56
2022-08-01T19:42:21.174Z,95761.19
2022-08-01T19:47:24.801Z,95755.50
2022-08-01T19:52:48.846Z,95778.31
2022-08-01T19:58:10.508Z,95801.34
2022-08-01T20:03:16.434Z,95830.38
2022-08-01T20:08:19.751Z,95829.25
2022-08-01T20:13:22.998Z,95804.41
2022-08-01T20:18:26.424Z,95785.94
2022-08-01T20:23:31.169Z,95787.06
2022-08-01T20:28:34.428Z,95785.44
2022-08-01T20:33:37.699Z,95783.03
2022-08-01T20:38:41.057Z,95783.03
2022-08-01T20:43:45.228Z,95769.75
2022-08-01T20:48:48.728Z,95779.38
2022-08-01T20:53:53.091Z,95780.03
2022-08-01T20:58:58.804Z,95789.16
2022-08-01T21:04:03.419Z,95803.06
2022-08-01T21:09:07.076Z,95807.09
2022-08-01T21:14:10.803Z,95805.78
2022-08-01T21:19:21.743Z,95815.22
2022-08-01T21:24:25.866Z,95829.63
2022-08-01T21:29:29.755Z,95856.56
2022-08-01T21:34:33.658Z,95872.59
2022-08-01T21:39:37.259Z,95884.16
2022-08-01T21:44:40.991Z,95903.38
2022-08-01T21:49:45.449Z,95902.66
2022-08-01T21:54:49.370Z,95908.16
2022-08-01T21:59:53.827Z,95905.22
2022-08-01T22:04:57.635Z,95885.19
2022-08-01T22:10:01.296Z,95903.59
2022-08-01T22:15:05.272Z,95893.75
2022-08-01T22:20:09.113Z,95882.53
2022-08-01T22:25:12.288Z,95886.34
2022-08-01T22:30:15.620Z,95874.31
2022-08-01T22:35:18.710Z,95875.25
2022-08-01T22:40:21.840Z,95867.78
2022-08-01T22:45:25.062Z,95866.00
2022-08-01T22:50:36.394Z,95864.91
2022-08-01T22:55:57.908Z,95857.13
2022-08-01T23:01:02.814Z,95843.44
2022-08-01T23:06:06.081Z,95856.44
2022-08-01T23:11:09.641Z,95848.50
2022-08-01T23:16:17.220Z,95839.91
2022-08-01T23:21:21.420Z,95850.50
2022-08-01T23:26:24.713Z,95838.22
2022-08-01T23:32:02.666Z,95840.81
2022-08-01T23:36:53.103Z,95848.81
2022-08-01T23:41:59.022Z,95846.59
2022-08-01T23:47:03.520Z,95854.25
2022-08-01T23:52:07.479Z,95850.91
2022-08-01T23:57:13.462Z,95850.41
